Terminal Aerodrome Forecast
Issued by NWS

Home | Current Version | Previous Version | Text Only | Print | Product List | Glossary Off
Versions: 1 2 3 4 5 6 7 8 9 10 11 12 13 14 15 16 17 18 19 20

000
FTUS43 KFGF 261323 AAC
TAFBJI
TAF AMD
KBJI 261323Z 2613/2712 25006KT P6SM OVC003
     FM261500 22007KT P6SM SCT025
     FM261900 24011KT P6SM SCT100
     FM270300 VRB06KT P6SM SCT250=

USA.gov is the U.S. government's official web portal to all federal, state and local government web resources and services.